createdAt,value
2023-05-23T00:01:45.623Z,9.90
2023-05-23T00:04:17.302Z,9.52
2023-05-23T00:06:47.366Z,8.57
2023-05-23T00:09:16.138Z,9.63
2023-05-23T00:11:45.912Z,10.40
2023-05-23T00:14:16.225Z,9.07
2023-05-23T00:16:45.638Z,9.05
2023-05-23T00:19:16.263Z,9.18
2023-05-23T00:21:48.299Z,9.30
2023-05-23T00:24:19.026Z,11.10
2023-05-23T00:26:47.562Z,10.23
2023-05-23T00:29:18.193Z,11.50
2023-05-23T00:31:47.492Z,11.68
2023-05-23T00:34:17.911Z,11.63
2023-05-23T00:36:48.213Z,12.40
2023-05-23T00:39:20.887Z,13.13
2023-05-23T00:41:52.947Z,13.23
2023-05-23T00:44:48.840Z,13.90
2023-05-23T00:47:17.367Z,14.70
2023-05-23T00:49:46.089Z,13.50
2023-05-23T00:52:16.089Z,13.82
2023-05-23T00:54:44.537Z,12.00
2023-05-23T00:57:13.006Z,12.63
2023-05-23T00:59:41.591Z,11.73
2023-05-23T01:02:12.868Z,10.50
2023-05-23T01:04:43.114Z,10.55
2023-05-23T01:07:12.447Z,11.50
2023-05-23T01:09:40.882Z,10.70
2023-05-23T01:12:22.018Z,10.85
2023-05-23T01:15:08.835Z,10.82
2023-05-23T01:17:48.334Z,11.23
2023-05-23T01:20:22.752Z,11.43
2023-05-23T01:23:48.559Z,10.98
2023-05-23T01:26:36.204Z,11.57
2023-05-23T01:29:16.317Z,10.95
2023-05-23T01:31:47.446Z,10.88
2023-05-23T01:34:17.165Z,11.80
2023-05-23T01:36:46.747Z,11.50
2023-05-23T01:39:15.104Z,11.13
2023-05-23T01:41:43.834Z,13.07
2023-05-23T01:44:13.836Z,12.73
2023-05-23T01:46:44.429Z,14.75
2023-05-23T01:49:15.632Z,17.60
2023-05-23T01:51:44.282Z,15.15
2023-05-23T01:54:17.038Z,14.90
2023-05-23T01:56:46.314Z,15.50
2023-05-23T01:59:16.192Z,14.75
2023-05-23T02:01:45.601Z,15.98
2023-05-23T02:04:15.835Z,16.30
2023-05-23T02:06:44.291Z,15.05
2023-05-23T02:09:14.892Z,15.32
2023-05-23T02:11:43.272Z,15.35
2023-05-23T02:14:12.950Z,14.65
2023-05-23T02:16:42.883Z,13.95
2023-05-23T02:19:11.599Z,14.70
2023-05-23T02:21:40.752Z,13.80
2023-05-23T02:24:09.121Z,13.98
2023-05-23T02:26:37.530Z,15.00
2023-05-23T02:29:06.037Z,13.60
2023-05-23T02:31:34.424Z,15.15
2023-05-23T02:34:04.404Z,15.30
2023-05-23T02:36:33.468Z,13.52
2023-05-23T02:39:02.150Z,14.55
2023-05-23T02:41:31.357Z,15.88
2023-05-23T02:44:00.427Z,13.75
2023-05-23T02:46:29.149Z,13.82
2023-05-23T02:48:57.614Z,13.45
2023-05-23T02:51:27.430Z,15.55
2023-05-23T02:53:55.879Z,13.38
2023-05-23T02:56:24.482Z,14.18
2023-05-23T02:58:53.359Z,14.27
2023-05-23T03:01:21.896Z,14.75
2023-05-23T03:03:50.629Z,13.70
2023-05-23T03:06:19.419Z,13.38
2023-05-23T03:08:49.450Z,14.40
2023-05-23T03:11:18.111Z,14.75
2023-05-23T03:13:46.724Z,16.30
2023-05-23T03:16:15.600Z,15.27
2023-05-23T03:18:44.166Z,14.70
2023-05-23T03:21:12.806Z,14.82
2023-05-23T03:23:41.410Z,14.48
2023-05-23T03:26:12.073Z,14.43
2023-05-23T03:28:40.951Z,14.82
2023-05-23T03:31:09.629Z,15.05
2023-05-23T03:33:40.269Z,14.75
2023-05-23T03:36:09.408Z,15.45
2023-05-23T03:38:37.986Z,12.70
2023-05-23T03:41:06.759Z,13.98
2023-05-23T03:43:36.772Z,14.00
2023-05-23T03:46:05.443Z,13.48
2023-05-23T03:48:34.106Z,14.23
2023-05-23T03:51:03.063Z,12.93
2023-05-23T03:53:32.823Z,14.18
2023-05-23T03:56:02.103Z,13.30
2023-05-23T03:58:31.729Z,14.68
2023-05-23T04:01:06.319Z,15.38
2023-05-23T04:03:35.110Z,15.55
2023-05-23T04:06:05.812Z,16.20
2023-05-23T04:08:35.717Z,18.60
2023-05-23T04:11:04.873Z,15.43
2023-05-23T04:13:37.546Z,16.05
2023-05-23T04:16:08.530Z,17.38
2023-05-23T04:18:39.452Z,17.95
2023-05-23T04:21:09.739Z,18.48
2023-05-23T04:23:44.871Z,18.00
2023-05-23T04:26:13.387Z,16.15
2023-05-23T04:28:48.852Z,17.15
2023-05-23T04:31:19.219Z,16.33
2023-05-23T04:33:47.978Z,15.75
2023-05-23T04:36:18.254Z,15.48
2023-05-23T04:38:51.385Z,15.45
2023-05-23T04:41:23.747Z,15.05
2023-05-23T04:44:12.673Z,14.55
2023-05-23T04:46:47.181Z,14.02
2023-05-23T04:49:22.824Z,13.75
2023-05-23T04:51:51.966Z,13.82
2023-05-23T04:54:24.777Z,13.30
2023-05-23T04:56:54.968Z,13.55
2023-05-23T04:59:24.961Z,15.60
2023-05-23T05:01:54.757Z,13.60
2023-05-23T05:04:23.532Z,12.57
2023-05-23T05:06:52.667Z,12.70
2023-05-23T05:09:22.167Z,12.48
2023-05-23T05:11:51.556Z,13.32
2023-05-23T05:14:21.660Z,11.10
2023-05-23T05:16:50.801Z,11.85
2023-05-23T05:19:21.168Z,11.05
2023-05-23T05:21:49.642Z,11.52
2023-05-23T05:24:21.080Z,10.77
2023-05-23T05:26:50.191Z,10.27
2023-05-23T05:29:18.744Z,10.75
2023-05-23T05:31:47.119Z,11.07
2023-05-23T05:34:15.978Z,10.52
2023-05-23T05:36:48.208Z,11.32
2023-05-23T05:39:18.762Z,11.02
2023-05-23T05:41:47.371Z,8.65
2023-05-23T05:44:18.496Z,10.63
2023-05-23T05:46:48.568Z,10.82
2023-05-23T05:49:17.155Z,9.75
2023-05-23T05:51:49.717Z,11.07
2023-05-23T05:54:19.396Z,10.65
2023-05-23T05:56:48.445Z,11.35
2023-05-23T05:59:17.757Z,9.82
2023-05-23T06:01:46.304Z,10.60
2023-05-23T06:04:15.141Z,10.85
2023-05-23T06:06:44.280Z,11.10
2023-05-23T06:09:14.335Z,10.70
2023-05-23T06:11:42.817Z,11.23
2023-05-23T06:14:11.610Z,10.95
2023-05-23T06:16:44.280Z,11.38
2023-05-23T06:19:13.203Z,12.07
2023-05-23T06:21:42.507Z,11.02
2023-05-23T06:24:14.065Z,11.48
2023-05-23T06:26:43.155Z,10.82
2023-05-23T06:29:11.601Z,10.98
2023-05-23T06:31:40.034Z,11.10
2023-05-23T06:34:08.481Z,12.07
2023-05-23T06:36:36.896Z,10.98
2023-05-23T06:39:05.429Z,12.43
2023-05-23T06:41:36.454Z,11.93
2023-05-23T06:44:04.918Z,11.70
2023-05-23T06:46:33.497Z,11.63
2023-05-23T06:49:14.471Z,10.35
2023-05-23T06:51:44.953Z,11.05
2023-05-23T06:54:13.968Z,9.88
2023-05-23T06:56:44.610Z,10.43
2023-05-23T06:59:13.394Z,9.50
2023-05-23T07:01:42.494Z,10.20
2023-05-23T07:04:12.307Z,8.95
2023-05-23T07:06:41.550Z,9.18
2023-05-23T07:09:12.007Z,8.60
2023-05-23T07:11:43.218Z,9.00
2023-05-23T07:14:12.540Z,8.68
2023-05-23T07:16:43.617Z,8.52
2023-05-23T07:19:14.313Z,8.32
2023-05-23T07:21:52.590Z,8.10
2023-05-23T07:24:22.793Z,8.73
2023-05-23T07:26:53.854Z,8.38
2023-05-23T07:29:22.855Z,7.90
2023-05-23T07:31:55.155Z,7.50
2023-05-23T07:34:24.756Z,7.45
2023-05-23T07:36:57.173Z,7.05
2023-05-23T07:39:28.056Z,7.43
2023-05-23T07:41:59.876Z,7.40
2023-05-23T07:44:29.618Z,7.38
2023-05-23T07:46:58.211Z,7.82
2023-05-23T07:49:27.256Z,7.90
2023-05-23T07:51:56.680Z,7.63
2023-05-23T07:54:25.176Z,7.00
2023-05-23T07:56:58.997Z,7.18
2023-05-23T07:59:28.017Z,6.97
2023-05-23T08:01:56.647Z,5.90
2023-05-23T08:04:27.437Z,7.40
2023-05-23T08:09:33.529Z,6.45
2023-05-23T08:12:03.446Z,6.30
2023-05-23T08:14:42.784Z,6.63
2023-05-23T08:17:25.203Z,5.72
2023-05-23T08:19:54.646Z,6.00
2023-05-23T08:22:23.231Z,5.35
2023-05-23T08:24:51.834Z,5.35
2023-05-23T08:27:21.814Z,5.68
2023-05-23T08:29:55.923Z,5.70
2023-05-23T08:32:24.716Z,5.43
2023-05-23T08:34:53.817Z,5.55
2023-05-23T08:37:22.685Z,5.57
2023-05-23T08:39:52.358Z,5.53
2023-05-23T08:42:45.199Z,5.10
2023-05-23T08:45:16.249Z,4.95
2023-05-23T08:47:46.677Z,5.53
2023-05-23T08:50:21.025Z,5.10
2023-05-23T08:52:56.834Z,4.90
2023-05-23T08:55:27.900Z,4.80
2023-05-23T08:58:00.743Z,5.22
2023-05-23T09:00:39.639Z,5.68
2023-05-23T09:03:08.202Z,6.40
2023-05-23T09:05:52.507Z,5.57
2023-05-23T09:08:22.013Z,4.65
2023-05-23T09:10:53.185Z,5.32
2023-05-23T09:13:24.380Z,4.43
2023-05-23T09:16:02.742Z,4.55
2023-05-23T09:18:40.232Z,4.30
2023-05-23T09:21:10.843Z,4.60
2023-05-23T09:23:45.638Z,4.07
2023-05-23T09:26:14.952Z,4.47
2023-05-23T09:28:47.152Z,4.22
2023-05-23T09:31:16.558Z,3.95
2023-05-23T09:33:48.268Z,3.90
2023-05-23T09:36:19.289Z,3.60
2023-05-23T09:38:49.546Z,3.80
2023-05-23T09:41:21.601Z,3.78
2023-05-23T09:43:56.543Z,3.75
2023-05-23T09:46:29.745Z,3.75
2023-05-23T09:49:00.284Z,3.90
2023-05-23T09:51:28.852Z,4.25
2023-05-23T09:53:58.104Z,3.60
2023-05-23T09:56:28.924Z,3.55
2023-05-23T09:59:01.814Z,3.40
2023-05-23T10:01:33.080Z,3.60
2023-05-23T10:04:02.561Z,3.38
2023-05-23T10:06:40.860Z,3.20
2023-05-23T10:09:16.004Z,3.15
2023-05-23T10:12:40.760Z,2.45
2023-05-23T10:15:11.570Z,2.92
2023-05-23T10:18:05.184Z,2.88
2023-05-23T10:20:35.858Z,3.00
2023-05-23T10:23:05.491Z,2.92
2023-05-23T10:25:35.814Z,2.92
2023-05-23T10:28:05.346Z,3.20
2023-05-23T10:30:36.442Z,3.00
2023-05-23T10:33:06.210Z,3.08
2023-05-23T10:35:48.696Z,3.10
2023-05-23T10:38:31.452Z,2.60
2023-05-23T10:41:10.324Z,3.00
2023-05-23T10:43:46.977Z,3.55
2023-05-23T10:46:17.218Z,3.28
2023-05-23T10:48:46.354Z,2.97
2023-05-23T10:51:16.090Z,3.30
2023-05-23T10:53:46.403Z,3.00
2023-05-23T10:56:23.893Z,3.13
2023-05-23T10:58:56.831Z,2.92
2023-05-23T11:01:28.089Z,2.85
2023-05-23T11:03:56.920Z,3.22
2023-05-23T11:06:34.081Z,2.72
2023-05-23T11:09:08.311Z,3.20
2023-05-23T11:12:02.734Z,2.60
2023-05-23T11:14:55.757Z,2.65
2023-05-23T11:17:35.313Z,2.60
2023-05-23T11:20:08.950Z,2.75
2023-05-23T11:22:39.985Z,2.28
2023-05-23T11:25:10.376Z,2.70
2023-05-23T11:27:41.485Z,2.55
2023-05-23T11:30:14.320Z,2.17
2023-05-23T11:32:52.317Z,2.30
2023-05-23T11:35:21.806Z,2.53
2023-05-23T11:37:50.905Z,2.40
2023-05-23T11:40:31.646Z,2.10
2023-05-23T11:43:00.794Z,2.45
2023-05-23T11:45:30.075Z,2.40
2023-05-23T11:48:00.538Z,2.22
2023-05-23T11:50:29.140Z,2.67
2023-05-23T11:52:57.996Z,2.60
2023-05-23T11:55:26.870Z,2.60
2023-05-23T11:57:58.118Z,2.90
2023-05-23T12:00:26.669Z,2.95
2023-05-23T12:02:55.243Z,2.67
2023-05-23T12:05:25.064Z,2.65
2023-05-23T12:07:53.715Z,2.65
2023-05-23T12:10:22.801Z,2.90
2023-05-23T12:12:53.299Z,2.70
2023-05-23T12:15:27.994Z,2.40
2023-05-23T12:17:57.318Z,2.67
2023-05-23T12:20:27.982Z,2.60
2023-05-23T12:22:58.193Z,2.58
2023-05-23T12:25:26.779Z,3.17
2023-05-23T12:27:56.377Z,3.13
2023-05-23T12:30:24.854Z,3.40
2023-05-23T12:32:53.815Z,3.40
2023-05-23T12:35:22.316Z,3.28
2023-05-23T12:37:54.860Z,3.60
2023-05-23T12:40:23.791Z,4.13
2023-05-23T12:42:53.656Z,3.72
2023-05-23T12:45:25.282Z,4.35
2023-05-23T12:47:54.287Z,4.18
2023-05-23T12:50:23.225Z,3.95
2023-05-23T12:52:53.491Z,4.20
2023-05-23T12:55:22.290Z,3.72
2023-05-23T12:57:51.009Z,4.22
2023-05-23T13:00:21.003Z,4.70
2023-05-23T13:02:50.532Z,4.40
2023-05-23T13:05:19.658Z,4.70
2023-05-23T13:07:48.224Z,4.43
2023-05-23T13:10:19.293Z,4.70
2023-05-23T13:12:47.845Z,5.43
2023-05-23T13:15:17.315Z,4.95
2023-05-23T13:17:50.164Z,4.25
2023-05-23T13:20:19.048Z,5.63
2023-05-23T13:22:47.464Z,4.85
2023-05-23T13:25:17.478Z,4.53
2023-05-23T13:27:48.207Z,4.35
2023-05-23T13:30:17.641Z,4.38
2023-05-23T13:32:46.109Z,4.82
2023-05-23T13:35:14.699Z,4.38
2023-05-23T13:37:43.201Z,4.53
2023-05-23T13:40:20.132Z,4.35
2023-05-23T13:42:51.073Z,4.18
2023-05-23T13:45:20.278Z,5.00
2023-05-23T13:47:48.974Z,4.18
2023-05-23T13:50:17.806Z,4.47
2023-05-23T13:52:48.416Z,4.80
2023-05-23T13:55:19.787Z,4.80
2023-05-23T13:57:48.343Z,4.40
2023-05-23T14:00:17.571Z,4.30
2023-05-23T14:02:46.143Z,4.00
2023-05-23T14:05:15.726Z,3.95
2023-05-23T14:07:47.401Z,3.55
2023-05-23T14:10:17.543Z,3.22
2023-05-23T14:12:47.818Z,3.67
2023-05-23T14:15:17.773Z,3.20
2023-05-23T14:17:46.411Z,3.40
2023-05-23T14:20:15.329Z,3.03
2023-05-23T14:22:43.867Z,2.63
2023-05-23T14:25:12.365Z,2.65
2023-05-23T14:27:41.485Z,2.10
2023-05-23T14:30:12.879Z,2.00
2023-05-23T14:32:41.656Z,2.05
2023-05-23T14:35:12.879Z,1.75
2023-05-23T14:37:41.431Z,1.73
2023-05-23T14:40:11.335Z,1.80
2023-05-23T14:42:39.812Z,1.98
2023-05-23T14:45:10.741Z,1.70
2023-05-23T14:47:39.406Z,1.85
2023-05-23T14:50:09.786Z,1.50
2023-05-23T14:52:38.312Z,2.10
2023-05-23T14:55:08.526Z,2.10
2023-05-23T14:57:37.205Z,2.00
2023-05-23T15:00:08.159Z,1.98
2023-05-23T15:02:38.439Z,2.15
2023-05-23T15:05:08.824Z,2.20
2023-05-23T15:07:38.676Z,2.40
2023-05-23T15:10:09.511Z,2.33
2023-05-23T15:12:38.191Z,2.72
2023-05-23T15:15:08.290Z,2.75
2023-05-23T15:17:38.740Z,2.63
2023-05-23T15:20:10.329Z,2.78
2023-05-23T15:22:40.206Z,2.70
2023-05-23T15:25:10.367Z,2.70
2023-05-23T15:27:39.073Z,3.30
2023-05-23T15:30:09.610Z,2.70
2023-05-23T15:32:39.621Z,2.63
2023-05-23T15:35:09.013Z,2.90
2023-05-23T15:37:37.563Z,2.72
2023-05-23T15:40:07.326Z,2.88
2023-05-23T15:42:36.449Z,2.95
2023-05-23T15:45:05.790Z,3.58
2023-05-23T15:47:34.525Z,3.40
2023-05-23T15:50:04.531Z,3.65
2023-05-23T15:52:33.083Z,3.47
2023-05-23T15:55:05.593Z,3.80
2023-05-23T15:57:35.142Z,3.72
2023-05-23T16:00:04.469Z,4.30
2023-05-23T16:02:40.406Z,4.53
2023-05-23T16:05:11.303Z,4.35
2023-05-23T16:07:40.203Z,4.82
2023-05-23T16:10:09.893Z,4.97
2023-05-23T16:12:39.896Z,5.43
2023-05-23T16:15:10.211Z,5.28
2023-05-23T16:17:38.785Z,5.50
2023-05-23T16:20:10.271Z,4.93
2023-05-23T16:22:38.839Z,5.22
2023-05-23T16:25:09.454Z,5.10
2023-05-23T16:27:38.155Z,5.05
2023-05-23T16:30:08.592Z,5.45
2023-05-23T16:32:37.208Z,5.03
2023-05-23T16:35:06.378Z,5.35
2023-05-23T16:37:36.902Z,4.63
2023-05-23T16:40:06.824Z,4.93
2023-05-23T16:42:35.714Z,4.82
2023-05-23T16:45:05.078Z,5.10
2023-05-23T16:47:34.044Z,4.97
2023-05-23T16:50:02.869Z,5.18
2023-05-23T16:52:31.455Z,4.75
2023-05-23T16:55:01.615Z,4.97
2023-05-23T16:57:30.403Z,4.75
2023-05-23T16:59:59.178Z,4.68
2023-05-23T17:02:27.845Z,5.38
2023-05-23T17:04:57.123Z,5.10
2023-05-23T17:07:25.688Z,4.43
2023-05-23T17:09:54.265Z,4.68
2023-05-23T17:12:24.244Z,4.72
2023-05-23T17:14:52.696Z,4.97
2023-05-23T17:17:21.154Z,4.45
2023-05-23T17:19:49.649Z,4.53
2023-05-23T17:22:18.151Z,4.60
2023-05-23T17:24:46.648Z,4.90
2023-05-23T17:27:15.240Z,4.55
2023-05-23T17:29:45.042Z,4.45
2023-05-23T17:32:13.556Z,4.50
2023-05-23T17:34:42.414Z,4.55
2023-05-23T17:37:11.800Z,4.28
2023-05-23T17:39:40.387Z,3.92
2023-05-23T17:42:09.038Z,4.05
2023-05-23T17:44:37.426Z,4.30
2023-05-23T17:47:07.945Z,3.92
2023-05-23T17:49:38.795Z,4.60
2023-05-23T17:52:09.712Z,4.32
2023-05-23T17:54:38.738Z,4.57
2023-05-23T17:57:07.696Z,3.75
2023-05-23T17:59:36.417Z,3.65
2023-05-23T18:02:06.976Z,3.72
2023-05-23T18:04:35.726Z,4.28
2023-05-23T18:07:05.920Z,3.80
2023-05-23T18:09:34.405Z,3.17
2023-05-23T18:12:04.137Z,2.97
2023-05-23T18:14:32.728Z,2.72
2023-05-23T18:17:01.287Z,2.60
2023-05-23T18:19:31.285Z,2.30
2023-05-23T18:21:59.858Z,2.30
2023-05-23T18:24:28.273Z,2.30
2023-05-23T18:26:58.145Z,2.20
2023-05-23T18:29:26.911Z,2.50
2023-05-23T18:31:55.977Z,2.22
2023-05-23T18:34:25.116Z,1.88
2023-05-23T18:36:56.450Z,2.30
2023-05-23T18:39:24.981Z,2.55
2023-05-23T18:41:53.463Z,2.20
2023-05-23T18:44:52.877Z,2.25
2023-05-23T18:47:21.315Z,2.10
2023-05-23T18:49:50.280Z,2.08
2023-05-23T18:52:20.123Z,2.00
2023-05-23T18:54:53.603Z,1.98
2023-05-23T18:57:22.656Z,1.90
2023-05-23T18:59:51.560Z,2.17
2023-05-23T19:02:20.088Z,1.80
2023-05-23T19:04:48.579Z,2.28
2023-05-23T19:07:17.187Z,1.85
2023-05-23T19:09:47.576Z,1.70
2023-05-23T19:12:16.266Z,1.70
2023-05-23T19:14:44.682Z,1.75
2023-05-23T19:17:13.077Z,1.90
2023-05-23T19:19:41.722Z,1.63
2023-05-23T19:22:10.846Z,1.60
2023-05-23T19:24:39.492Z,1.73
2023-05-23T19:27:09.533Z,1.90
2023-05-23T19:29:37.979Z,1.90
2023-05-23T19:32:06.877Z,2.30
2023-05-23T19:34:35.475Z,2.05
2023-05-23T19:37:03.920Z,2.00
2023-05-23T19:39:32.368Z,1.75
2023-05-23T19:42:01.024Z,2.08
2023-05-23T19:44:30.861Z,1.63
2023-05-23T19:46:59.474Z,2.10
2023-05-23T19:49:27.920Z,2.03
2023-05-23T19:51:56.340Z,1.90
2023-05-23T19:54:24.782Z,2.00
2023-05-23T19:56:53.391Z,2.78
2023-05-23T19:59:21.890Z,1.88
2023-05-23T20:01:51.817Z,2.38
2023-05-23T20:04:23.770Z,2.50
2023-05-23T20:06:52.300Z,2.10
2023-05-23T20:09:20.730Z,2.10
2023-05-23T20:11:49.161Z,3.25
2023-05-23T20:14:17.592Z,2.53
2023-05-23T20:16:46.130Z,2.70
2023-05-23T20:19:16.121Z,2.00
2023-05-23T20:21:44.645Z,2.20
2023-05-23T20:24:14.929Z,1.95
2023-05-23T20:26:43.387Z,2.55
2023-05-23T20:29:11.796Z,2.60
2023-05-23T20:31:40.203Z,2.50
2023-05-23T20:34:08.626Z,2.05
2023-05-23T20:36:39.170Z,2.25
2023-05-23T20:39:07.893Z,1.88
2023-05-23T20:41:36.350Z,2.25
2023-05-23T20:44:04.946Z,2.38
2023-05-23T20:46:33.663Z,2.60
2023-05-23T20:49:02.154Z,2.15
2023-05-23T20:51:30.850Z,2.00
2023-05-23T20:54:00.769Z,2.25
2023-05-23T20:56:29.305Z,2.10
2023-05-23T20:59:00.341Z,1.90
2023-05-23T21:01:29.456Z,2.55
2023-05-23T21:03:57.961Z,1.98
2023-05-23T21:06:26.520Z,2.35
2023-05-23T21:08:55.078Z,2.30
2023-05-23T21:11:24.991Z,2.20
2023-05-23T21:13:53.410Z,2.53
2023-05-23T21:16:21.894Z,2.35
2023-05-23T21:18:50.375Z,1.95
2023-05-23T21:21:18.763Z,2.10
2023-05-23T21:23:47.165Z,2.30
2023-05-23T21:26:15.569Z,2.00
2023-05-23T21:28:45.587Z,2.20
2023-05-23T21:31:14.421Z,2.22
2023-05-23T21:33:42.850Z,2.28
2023-05-23T21:36:11.275Z,2.10
2023-05-23T21:38:40.599Z,1.90
2023-05-23T21:41:09.097Z,1.95
2023-05-23T21:43:37.524Z,2.78
2023-05-23T21:46:07.384Z,2.17
2023-05-23T21:48:35.889Z,1.83
2023-05-23T21:51:04.319Z,2.20
2023-05-23T21:53:32.864Z,2.30
2023-05-23T21:56:01.336Z,2.10
2023-05-23T21:58:29.743Z,2.30
2023-05-23T22:00:58.181Z,2.72
2023-05-23T22:03:28.114Z,2.70
2023-05-23T22:05:56.575Z,2.03
2023-05-23T22:08:24.983Z,2.22
2023-05-23T22:10:53.458Z,2.10
2023-05-23T22:13:21.818Z,2.42
2023-05-23T22:15:50.597Z,2.35
2023-05-23T22:18:19.075Z,1.95
2023-05-23T22:20:49.450Z,2.20
2023-05-23T22:23:17.892Z,1.73
2023-05-23T22:25:46.702Z,2.03
2023-05-23T22:28:15.199Z,2.10
2023-05-23T22:30:43.712Z,1.98
2023-05-23T22:33:13.227Z,2.33
2023-05-23T22:35:42.114Z,2.28
2023-05-23T22:38:11.991Z,2.00
2023-05-23T22:40:40.737Z,2.20
2023-05-23T22:43:09.316Z,1.77
2023-05-23T22:45:42.564Z,2.05
2023-05-23T22:48:11.560Z,2.05
2023-05-23T22:50:41.513Z,2.13
2023-05-23T22:53:11.653Z,2.00
2023-05-23T22:55:40.209Z,2.13
2023-05-23T22:58:09.035Z,1.88
2023-05-23T23:00:37.675Z,2.30
2023-05-23T23:03:07.533Z,2.25
2023-05-23T23:05:36.126Z,1.80
2023-05-23T23:08:04.621Z,2.10
2023-05-23T23:10:34.395Z,2.20
2023-05-23T23:13:02.912Z,2.00
2023-05-23T23:15:33.872Z,2.22
2023-05-23T23:18:02.591Z,2.30
2023-05-23T23:20:31.147Z,2.38
2023-05-23T23:22:59.640Z,2.13
2023-05-23T23:25:28.143Z,2.28
2023-05-23T23:27:58.061Z,2.05
2023-05-23T23:30:26.565Z,1.63
2023-05-23T23:32:55.041Z,2.10
2023-05-23T23:35:23.662Z,2.03
2023-05-23T23:37:52.108Z,2.70
2023-05-23T23:40:20.487Z,2.20
2023-05-23T23:42:48.917Z,2.43
2023-05-23T23:45:18.770Z,2.17
2023-05-23T23:47:47.344Z,2.10
2023-05-23T23:50:15.885Z,2.47
2023-05-23T23:52:47.296Z,2.20
2023-05-23T23:55:15.783Z,1.93
2023-05-23T23:57:44.212Z,1.70
